sensor_id;sensor_type;location;lat;lon;timestamp;P1;durP1;ratioP1;P2;durP2;ratioP2
4597;SDS011;62772;48.646;8.906;2022-10-19T00:02:39;13.60;;;7.00;;
4597;SDS011;62772;48.646;8.906;2022-10-19T00:07:42;14.53;;;7.97;;
4597;SDS011;62772;48.646;8.906;2022-10-19T00:12:43;17.63;;;8.77;;
4597;SDS011;62772;48.646;8.906;2022-10-19T00:17:43;13.97;;;8.90;;
4597;SDS011;62772;48.646;8.906;2022-10-19T00:22:47;11.30;;;7.70;;
4597;SDS011;62772;48.646;8.906;2022-10-19T00:27:49;12.67;;;6.93;;
4597;SDS011;62772;48.646;8.906;2022-10-19T00:32:50;12.43;;;6.97;;
4597;SDS011;62772;48.646;8.906;2022-10-19T00:37:53;12.03;;;6.90;;
4597;SDS011;62772;48.646;8.906;2022-10-19T00:42:54;10.30;;;6.43;;
4597;SDS011;62772;48.646;8.906;2022-10-19T00:47:56;10.33;;;6.97;;
4597;SDS011;62772;48.646;8.906;2022-10-19T00:52:59;9.90;;;6.30;;
4597;SDS011;62772;48.646;8.906;2022-10-19T00:58:00;9.23;;;5.83;;
4597;SDS011;62772;48.646;8.906;2022-10-19T01:03:02;12.63;;;6.30;;
4597;SDS011;62772;48.646;8.906;2022-10-19T01:08:07;7.03;;;4.80;;
4597;SDS011;62772;48.646;8.906;2022-10-19T01:13:22;7.13;;;5.30;;
4597;SDS011;62772;48.646;8.906;2022-10-19T01:18:31;7.70;;;5.20;;
4597;SDS011;62772;48.646;8.906;2022-10-19T01:23:45;12.20;;;5.63;;
4597;SDS011;62772;48.646;8.906;2022-10-19T01:29:07;7.77;;;4.83;;
4597;SDS011;62772;48.646;8.906;2022-10-19T01:34:20;8.07;;;5.23;;
4597;SDS011;62772;48.646;8.906;2022-10-19T01:39:27;7.50;;;5.57;;
4597;SDS011;62772;48.646;8.906;2022-10-19T01:44:38;9.20;;;5.17;;
4597;SDS011;62772;48.646;8.906;2022-10-19T01:49:46;10.83;;;6.50;;
4597;SDS011;62772;48.646;8.906;2022-10-19T01:54:51;16.30;;;6.80;;
4597;SDS011;62772;48.646;8.906;2022-10-19T01:59:55;12.63;;;6.67;;
4597;SDS011;62772;48.646;8.906;2022-10-19T02:05:00;13.73;;;7.27;;
4597;SDS011;62772;48.646;8.906;2022-10-19T02:10:03;14.67;;;8.00;;
4597;SDS011;62772;48.646;8.906;2022-10-19T02:15:06;10.57;;;7.47;;
4597;SDS011;62772;48.646;8.906;2022-10-19T02:20:14;16.10;;;8.53;;
4597;SDS011;62772;48.646;8.906;2022-10-19T02:25:16;21.03;;;9.73;;
4597;SDS011;62772;48.646;8.906;2022-10-19T02:30:17;16.70;;;9.60;;
4597;SDS011;62772;48.646;8.906;2022-10-19T02:35:22;16.57;;;8.90;;
4597;SDS011;62772;48.646;8.906;2022-10-19T02:40:23;20.30;;;9.70;;
4597;SDS011;62772;48.646;8.906;2022-10-19T02:45:24;24.63;;;10.43;;
4597;SDS011;62772;48.646;8.906;2022-10-19T02:50:30;14.73;;;9.20;;
4597;SDS011;62772;48.646;8.906;2022-10-19T02:55:31;14.70;;;8.73;;
4597;SDS011;62772;48.646;8.906;2022-10-19T03:00:32;21.47;;;10.33;;
4597;SDS011;62772;48.646;8.906;2022-10-19T03:05:35;20.53;;;10.53;;
4597;SDS011;62772;48.646;8.906;2022-10-19T03:10:36;26.80;;;10.13;;
4597;SDS011;62772;48.646;8.906;2022-10-19T03:15:37;27.73;;;10.90;;
4597;SDS011;62772;48.646;8.906;2022-10-19T03:20:40;21.83;;;9.87;;
4597;SDS011;62772;48.646;8.906;2022-10-19T03:25:41;26.80;;;10.60;;
4597;SDS011;62772;48.646;8.906;2022-10-19T03:30:42;31.93;;;13.20;;
4597;SDS011;62772;48.646;8.906;2022-10-19T03:35:45;36.17;;;10.93;;
4597;SDS011;62772;48.646;8.906;2022-10-19T03:40:46;31.27;;;10.57;;
4597;SDS011;62772;48.646;8.906;2022-10-19T03:45:47;42.27;;;12.17;;
4597;SDS011;62772;48.646;8.906;2022-10-19T03:50:52;42.20;;;12.07;;
4597;SDS011;62772;48.646;8.906;2022-10-19T03:56:01;38.23;;;13.13;;
4597;SDS011;62772;48.646;8.906;2022-10-19T04:01:05;42.53;;;12.17;;
4597;SDS011;62772;48.646;8.906;2022-10-19T04:06:11;45.33;;;14.03;;
4597;SDS011;62772;48.646;8.906;2022-10-19T04:11:14;54.07;;;14.60;;
4597;SDS011;62772;48.646;8.906;2022-10-19T04:16:17;49.57;;;12.43;;
4597;SDS011;62772;48.646;8.906;2022-10-19T04:21:21;49.67;;;13.77;;
4597;SDS011;62772;48.646;8.906;2022-10-19T04:26:23;51.57;;;14.47;;
4597;SDS011;62772;48.646;8.906;2022-10-19T04:31:24;54.63;;;14.20;;
4597;SDS011;62772;48.646;8.906;2022-10-19T04:36:28;68.40;;;14.67;;
4597;SDS011;62772;48.646;8.906;2022-10-19T04:41:28;47.33;;;13.60;;
4597;SDS011;62772;48.646;8.906;2022-10-19T04:46:29;94.80;;;14.00;;
4597;SDS011;62772;48.646;8.906;2022-10-19T04:51:33;49.30;;;14.43;;
4597;SDS011;62772;48.646;8.906;2022-10-19T04:56:34;60.30;;;15.17;;
4597;SDS011;62772;48.646;8.906;2022-10-19T05:01:34;66.67;;;14.70;;
4597;SDS011;62772;48.646;8.906;2022-10-19T05:06:38;56.13;;;14.67;;
4597;SDS011;62772;48.646;8.906;2022-10-19T05:11:39;54.30;;;14.33;;
4597;SDS011;62772;48.646;8.906;2022-10-19T05:16:43;72.30;;;16.17;;
4597;SDS011;62772;48.646;8.906;2022-10-19T05:21:46;54.87;;;15.00;;
4597;SDS011;62772;48.646;8.906;2022-10-19T05:26:47;56.80;;;13.67;;
4597;SDS011;62772;48.646;8.906;2022-10-19T05:31:48;60.60;;;14.80;;
4597;SDS011;62772;48.646;8.906;2022-10-19T05:36:51;48.90;;;13.27;;
4597;SDS011;62772;48.646;8.906;2022-10-19T05:41:55;48.37;;;13.50;;
4597;SDS011;62772;48.646;8.906;2022-10-19T05:46:56;47.10;;;14.10;;
4597;SDS011;62772;48.646;8.906;2022-10-19T05:51:59;50.00;;;15.37;;
4597;SDS011;62772;48.646;8.906;2022-10-19T05:57:00;49.63;;;15.23;;
4597;SDS011;62772;48.646;8.906;2022-10-19T06:02:01;57.90;;;14.00;;
4597;SDS011;62772;48.646;8.906;2022-10-19T06:07:05;49.53;;;15.90;;
4597;SDS011;62772;48.646;8.906;2022-10-19T06:12:05;45.40;;;14.83;;
4597;SDS011;62772;48.646;8.906;2022-10-19T06:17:06;45.77;;;14.40;;
4597;SDS011;62772;48.646;8.906;2022-10-19T06:22:10;45.03;;;14.70;;
4597;SDS011;62772;48.646;8.906;2022-10-19T06:27:11;47.63;;;14.00;;
4597;SDS011;62772;48.646;8.906;2022-10-19T06:32:11;47.33;;;15.30;;
4597;SDS011;62772;48.646;8.906;2022-10-19T06:37:15;44.63;;;14.60;;
4597;SDS011;62772;48.646;8.906;2022-10-19T06:42:15;41.57;;;13.87;;
4597;SDS011;62772;48.646;8.906;2022-10-19T06:47:16;47.27;;;15.13;;
4597;SDS011;62772;48.646;8.906;2022-10-19T06:52:19;47.60;;;14.03;;
4597;SDS011;62772;48.646;8.906;2022-10-19T06:57:20;46.60;;;14.40;;
4597;SDS011;62772;48.646;8.906;2022-10-19T07:02:21;37.47;;;13.80;;
4597;SDS011;62772;48.646;8.906;2022-10-19T07:07:24;49.70;;;14.57;;
4597;SDS011;62772;48.646;8.906;2022-10-19T07:12:25;46.43;;;13.70;;
4597;SDS011;62772;48.646;8.906;2022-10-19T07:17:26;48.10;;;15.27;;
4597;SDS011;62772;48.646;8.906;2022-10-19T07:22:29;42.70;;;14.10;;
4597;SDS011;62772;48.646;8.906;2022-10-19T07:27:30;40.60;;;13.43;;
4597;SDS011;62772;48.646;8.906;2022-10-19T07:32:31;36.87;;;12.33;;
4597;SDS011;62772;48.646;8.906;2022-10-19T07:37:34;36.43;;;13.27;;
4597;SDS011;62772;48.646;8.906;2022-10-19T07:42:35;38.30;;;13.23;;
4597;SDS011;62772;48.646;8.906;2022-10-19T07:47:37;31.80;;;12.70;;
4597;SDS011;62772;48.646;8.906;2022-10-19T07:52:40;29.23;;;12.77;;
4597;SDS011;62772;48.646;8.906;2022-10-19T07:57:41;29.47;;;12.27;;
4597;SDS011;62772;48.646;8.906;2022-10-19T08:02:42;30.93;;;13.37;;
4597;SDS011;62772;48.646;8.906;2022-10-19T08:07:45;32.47;;;12.23;;
4597;SDS011;62772;48.646;8.906;2022-10-19T08:12:46;31.20;;;12.37;;
4597;SDS011;62772;48.646;8.906;2022-10-19T08:17:47;29.60;;;12.77;;
4597;SDS011;62772;48.646;8.906;2022-10-19T08:22:50;32.23;;;13.07;;
4597;SDS011;62772;48.646;8.906;2022-10-19T08:27:51;33.90;;;12.30;;
4597;SDS011;62772;48.646;8.906;2022-10-19T08:32:52;28.93;;;11.30;;
4597;SDS011;62772;48.646;8.906;2022-10-19T08:37:55;27.77;;;12.07;;
4597;SDS011;62772;48.646;8.906;2022-10-19T08:42:57;25.00;;;12.30;;
4597;SDS011;62772;48.646;8.906;2022-10-19T08:48:09;23.30;;;11.43;;
4597;SDS011;62772;48.646;8.906;2022-10-19T08:53:29;23.33;;;11.30;;
4597;SDS011;62772;48.646;8.906;2022-10-19T08:58:38;19.03;;;10.03;;
4597;SDS011;62772;48.646;8.906;2022-10-19T09:03:51;25.77;;;10.23;;
4597;SDS011;62772;48.646;8.906;2022-10-19T09:09:00;22.50;;;10.00;;
4597;SDS011;62772;48.646;8.906;2022-10-19T09:14:02;21.10;;;10.50;;
4597;SDS011;62772;48.646;8.906;2022-10-19T09:19:11;25.90;;;10.73;;
4597;SDS011;62772;48.646;8.906;2022-10-19T09:24:25;20.40;;;10.00;;
4597;SDS011;62772;48.646;8.906;2022-10-19T09:29:34;22.80;;;10.80;;
4597;SDS011;62772;48.646;8.906;2022-10-19T09:34:40;30.67;;;11.57;;
4597;SDS011;62772;48.646;8.906;2022-10-19T09:39:46;25.00;;;10.93;;
4597;SDS011;62772;48.646;8.906;2022-10-19T09:44:47;24.40;;;12.30;;
4597;SDS011;62772;48.646;8.906;2022-10-19T09:49:49;20.57;;;11.87;;
4597;SDS011;62772;48.646;8.906;2022-10-19T09:54:57;19.70;;;10.90;;
4597;SDS011;62772;48.646;8.906;2022-10-19T10:00:00;24.27;;;11.70;;
4597;SDS011;62772;48.646;8.906;2022-10-19T10:05:05;21.40;;;11.33;;
4597;SDS011;62772;48.646;8.906;2022-10-19T10:10:18;23.00;;;11.27;;
4597;SDS011;62772;48.646;8.906;2022-10-19T10:15:22;22.63;;;11.60;;
4597;SDS011;62772;48.646;8.906;2022-10-19T10:20:26;23.10;;;11.10;;
4597;SDS011;62772;48.646;8.906;2022-10-19T10:25:32;20.13;;;11.40;;
4597;SDS011;62772;48.646;8.906;2022-10-19T10:30:34;21.00;;;10.50;;
4597;SDS011;62772;48.646;8.906;2022-10-19T10:35:36;19.67;;;11.33;;
4597;SDS011;62772;48.646;8.906;2022-10-19T10:40:39;20.00;;;11.17;;
4597;SDS011;62772;48.646;8.906;2022-10-19T10:45:48;18.33;;;10.63;;
4597;SDS011;62772;48.646;8.906;2022-10-19T10:50:52;19.93;;;11.97;;
4597;SDS011;62772;48.646;8.906;2022-10-19T10:55:56;20.93;;;11.43;;
4597;SDS011;62772;48.646;8.906;2022-10-19T11:00:57;17.93;;;11.30;;
4597;SDS011;62772;48.646;8.906;2022-10-19T11:06:03;20.67;;;12.13;;
4597;SDS011;62772;48.646;8.906;2022-10-19T11:11:10;19.77;;;11.17;;
4597;SDS011;62772;48.646;8.906;2022-10-19T11:16:16;17.80;;;10.30;;
4597;SDS011;62772;48.646;8.906;2022-10-19T11:21:19;15.17;;;8.57;;
4597;SDS011;62772;48.646;8.906;2022-10-19T11:26:32;11.70;;;7.90;;
4597;SDS011;62772;48.646;8.906;2022-10-19T11:31:43;12.57;;;7.80;;
4597;SDS011;62772;48.646;8.906;2022-10-19T11:36:48;12.83;;;7.30;;
4597;SDS011;62772;48.646;8.906;2022-10-19T11:41:57;12.93;;;7.17;;
4597;SDS011;62772;48.646;8.906;2022-10-19T11:47:13;9.00;;;5.50;;
4597;SDS011;62772;48.646;8.906;2022-10-19T11:52:31;8.40;;;5.13;;
4597;SDS011;62772;48.646;8.906;2022-10-19T11:57:44;9.03;;;5.13;;
4597;SDS011;62772;48.646;8.906;2022-10-19T12:08:34;9.47;;;6.10;;
4597;SDS011;62772;48.646;8.906;2022-10-19T12:13:52;8.17;;;5.27;;
4597;SDS011;62772;48.646;8.906;2022-10-19T12:18:56;9.37;;;5.40;;
4597;SDS011;62772;48.646;8.906;2022-10-19T12:24:00;7.70;;;4.50;;
4597;SDS011;62772;48.646;8.906;2022-10-19T12:29:11;8.03;;;4.63;;
4597;SDS011;62772;48.646;8.906;2022-10-19T12:34:19;7.60;;;4.30;;
4597;SDS011;62772;48.646;8.906;2022-10-19T12:39:29;5.50;;;4.17;;
4597;SDS011;62772;48.646;8.906;2022-10-19T12:44:47;7.10;;;4.03;;
4597;SDS011;62772;48.646;8.906;2022-10-19T12:50:16;5.50;;;3.43;;
4597;SDS011;62772;48.646;8.906;2022-10-19T12:55:57;5.80;;;3.80;;
4597;SDS011;62772;48.646;8.906;2022-10-19T13:01:03;6.83;;;4.17;;
4597;SDS011;62772;48.646;8.906;2022-10-19T13:06:08;6.60;;;4.07;;
4597;SDS011;62772;48.646;8.906;2022-10-19T13:11:11;7.13;;;4.30;;
4597;SDS011;62772;48.646;8.906;2022-10-19T13:16:37;5.80;;;4.13;;
4597;SDS011;62772;48.646;8.906;2022-10-19T13:27:23;7.33;;;4.37;;
4597;SDS011;62772;48.646;8.906;2022-10-19T13:32:41;7.20;;;4.43;;
4597;SDS011;62772;48.646;8.906;2022-10-19T13:37:43;7.07;;;4.67;;
4597;SDS011;62772;48.646;8.906;2022-10-19T13:42:44;10.70;;;5.57;;
4597;SDS011;62772;48.646;8.906;2022-10-19T13:47:48;11.93;;;6.60;;
4597;SDS011;62772;48.646;8.906;2022-10-19T14:04:09;14.63;;;6.13;;
4597;SDS011;62772;48.646;8.906;2022-10-19T14:09:25;9.50;;;5.53;;
4597;SDS011;62772;48.646;8.906;2022-10-19T14:14:46;8.37;;;6.30;;
4597;SDS011;62772;48.646;8.906;2022-10-19T14:19:50;10.17;;;6.33;;
4597;SDS011;62772;48.646;8.906;2022-10-19T14:24:58;9.20;;;5.40;;
4597;SDS011;62772;48.646;8.906;2022-10-19T14:30:01;10.03;;;6.20;;
4597;SDS011;62772;48.646;8.906;2022-10-19T14:35:15;11.07;;;5.63;;
4597;SDS011;62772;48.646;8.906;2022-10-19T14:40:23;7.60;;;5.63;;
4597;SDS011;62772;48.646;8.906;2022-10-19T14:45:26;8.33;;;5.30;;
4597;SDS011;62772;48.646;8.906;2022-10-19T14:50:33;9.27;;;6.40;;
4597;SDS011;62772;48.646;8.906;2022-10-19T14:55:40;12.00;;;6.50;;
4597;SDS011;62772;48.646;8.906;2022-10-19T15:00:42;8.97;;;5.87;;
4597;SDS011;62772;48.646;8.906;2022-10-19T15:05:49;11.23;;;5.93;;
4597;SDS011;62772;48.646;8.906;2022-10-19T15:10:53;10.20;;;6.30;;
4597;SDS011;62772;48.646;8.906;2022-10-19T15:15:54;8.60;;;6.40;;
4597;SDS011;62772;48.646;8.906;2022-10-19T15:21:09;10.30;;;6.30;;
4597;SDS011;62772;48.646;8.906;2022-10-19T15:26:14;11.27;;;6.20;;
4597;SDS011;62772;48.646;8.906;2022-10-19T15:31:18;9.17;;;5.80;;
4597;SDS011;62772;48.646;8.906;2022-10-19T15:36:23;10.43;;;5.70;;
4597;SDS011;62772;48.646;8.906;2022-10-19T15:41:26;12.50;;;5.70;;
4597;SDS011;62772;48.646;8.906;2022-10-19T15:46:29;9.67;;;5.73;;
4597;SDS011;62772;48.646;8.906;2022-10-19T15:51:37;9.77;;;6.57;;
4597;SDS011;62772;48.646;8.906;2022-10-19T15:56:42;8.27;;;5.50;;
4597;SDS011;62772;48.646;8.906;2022-10-19T16:01:45;9.37;;;6.40;;
4597;SDS011;62772;48.646;8.906;2022-10-19T16:06:50;15.70;;;7.10;;
4597;SDS011;62772;48.646;8.906;2022-10-19T16:11:51;10.77;;;7.60;;
4597;SDS011;62772;48.646;8.906;2022-10-19T16:16:56;8.87;;;6.20;;
4597;SDS011;62772;48.646;8.906;2022-10-19T16:21:59;12.37;;;6.83;;
4597;SDS011;62772;48.646;8.906;2022-10-19T16:27:00;9.63;;;6.13;;
4597;SDS011;62772;48.646;8.906;2022-10-19T16:32:01;9.27;;;6.40;;
4597;SDS011;62772;48.646;8.906;2022-10-19T16:37:04;10.27;;;6.57;;
4597;SDS011;62772;48.646;8.906;2022-10-19T16:42:05;11.43;;;7.50;;
4597;SDS011;62772;48.646;8.906;2022-10-19T16:47:05;10.27;;;6.50;;
4597;SDS011;62772;48.646;8.906;2022-10-19T16:52:09;10.60;;;7.03;;
4597;SDS011;62772;48.646;8.906;2022-10-19T16:57:12;12.60;;;7.57;;
4597;SDS011;62772;48.646;8.906;2022-10-19T17:02:13;13.37;;;8.30;;
4597;SDS011;62772;48.646;8.906;2022-10-19T17:07:16;14.40;;;9.90;;
4597;SDS011;62772;48.646;8.906;2022-10-19T17:12:18;16.00;;;10.50;;
4597;SDS011;62772;48.646;8.906;2022-10-19T17:17:19;11.27;;;7.67;;
4597;SDS011;62772;48.646;8.906;2022-10-19T17:22:22;10.13;;;7.20;;
4597;SDS011;62772;48.646;8.906;2022-10-19T17:27:23;12.23;;;8.60;;
4597;SDS011;62772;48.646;8.906;2022-10-19T17:32:24;23.73;;;9.57;;
4597;SDS011;62772;48.646;8.906;2022-10-19T17:37:27;12.23;;;8.00;;
4597;SDS011;62772;48.646;8.906;2022-10-19T17:42:28;13.50;;;8.47;;
4597;SDS011;62772;48.646;8.906;2022-10-19T17:47:30;13.60;;;9.93;;
4597;SDS011;62772;48.646;8.906;2022-10-19T17:52:33;14.13;;;8.97;;
4597;SDS011;62772;48.646;8.906;2022-10-19T17:57:34;15.40;;;9.80;;
4597;SDS011;62772;48.646;8.906;2022-10-19T18:02:35;12.00;;;8.73;;
4597;SDS011;62772;48.646;8.906;2022-10-19T18:07:38;20.53;;;13.00;;
4597;SDS011;62772;48.646;8.906;2022-10-19T18:12:41;14.87;;;8.03;;
4597;SDS011;62772;48.646;8.906;2022-10-19T18:17:42;15.13;;;9.77;;
4597;SDS011;62772;48.646;8.906;2022-10-19T18:22:45;16.37;;;10.70;;
4597;SDS011;62772;48.646;8.906;2022-10-19T18:27:46;20.60;;;11.23;;
4597;SDS011;62772;48.646;8.906;2022-10-19T18:32:48;19.13;;;11.80;;
4597;SDS011;62772;48.646;8.906;2022-10-19T18:37:52;14.77;;;9.50;;
4597;SDS011;62772;48.646;8.906;2022-10-19T18:42:52;12.23;;;7.70;;
4597;SDS011;62772;48.646;8.906;2022-10-19T18:47:53;17.57;;;9.97;;
4597;SDS011;62772;48.646;8.906;2022-10-19T18:52:57;12.50;;;8.30;;
4597;SDS011;62772;48.646;8.906;2022-10-19T18:57:57;11.90;;;7.77;;
4597;SDS011;62772;48.646;8.906;2022-10-19T19:02:58;12.40;;;9.40;;
4597;SDS011;62772;48.646;8.906;2022-10-19T19:08:02;13.50;;;9.03;;
4597;SDS011;62772;48.646;8.906;2022-10-19T19:13:03;15.90;;;10.33;;
4597;SDS011;62772;48.646;8.906;2022-10-19T19:18:04;16.43;;;10.30;;
4597;SDS011;62772;48.646;8.906;2022-10-19T19:23:07;15.40;;;10.43;;
4597;SDS011;62772;48.646;8.906;2022-10-19T19:28:08;17.93;;;11.43;;
4597;SDS011;62772;48.646;8.906;2022-10-19T19:33:09;19.27;;;12.17;;
4597;SDS011;62772;48.646;8.906;2022-10-19T19:38:13;16.47;;;10.60;;
4597;SDS011;62772;48.646;8.906;2022-10-19T19:43:15;14.03;;;9.70;;
4597;SDS011;62772;48.646;8.906;2022-10-19T19:48:16;18.00;;;10.80;;
4597;SDS011;62772;48.646;8.906;2022-10-19T19:53:19;18.50;;;10.53;;
4597;SDS011;62772;48.646;8.906;2022-10-19T19:58:21;12.70;;;9.40;;
4597;SDS011;62772;48.646;8.906;2022-10-19T20:03:22;15.70;;;10.77;;
4597;SDS011;62772;48.646;8.906;2022-10-19T20:08:25;14.00;;;10.07;;
4597;SDS011;62772;48.646;8.906;2022-10-19T20:13:26;13.93;;;9.30;;
4597;SDS011;62772;48.646;8.906;2022-10-19T20:18:27;17.13;;;9.77;;
4597;SDS011;62772;48.646;8.906;2022-10-19T20:23:31;13.80;;;8.83;;
4597;SDS011;62772;48.646;8.906;2022-10-19T20:28:32;16.13;;;9.80;;
4597;SDS011;62772;48.646;8.906;2022-10-19T20:33:34;14.50;;;8.20;;
4597;SDS011;62772;48.646;8.906;2022-10-19T20:38:42;11.00;;;7.90;;
4597;SDS011;62772;48.646;8.906;2022-10-19T20:43:45;15.13;;;9.50;;
4597;SDS011;62772;48.646;8.906;2022-10-19T20:48:46;15.33;;;10.23;;
4597;SDS011;62772;48.646;8.906;2022-10-19T20:53:51;15.53;;;10.33;;
4597;SDS011;62772;48.646;8.906;2022-10-19T20:58:53;16.03;;;10.67;;
4597;SDS011;62772;48.646;8.906;2022-10-19T21:03:55;14.03;;;9.63;;
4597;SDS011;62772;48.646;8.906;2022-10-19T21:09:00;15.60;;;10.10;;
4597;SDS011;62772;48.646;8.906;2022-10-19T21:14:01;13.93;;;10.00;;
4597;SDS011;62772;48.646;8.906;2022-10-19T21:19:04;18.23;;;11.97;;
4597;SDS011;62772;48.646;8.906;2022-10-19T21:24:09;14.70;;;10.10;;
4597;SDS011;62772;48.646;8.906;2022-10-19T21:29:12;16.43;;;10.43;;
4597;SDS011;62772;48.646;8.906;2022-10-19T21:34:15;18.30;;;11.03;;
4597;SDS011;62772;48.646;8.906;2022-10-19T21:39:23;19.10;;;11.70;;
4597;SDS011;62772;48.646;8.906;2022-10-19T21:44:23;19.83;;;10.77;;
4597;SDS011;62772;48.646;8.906;2022-10-19T21:49:24;17.93;;;10.90;;
4597;SDS011;62772;48.646;8.906;2022-10-19T21:54:28;18.97;;;11.60;;
4597;SDS011;62772;48.646;8.906;2022-10-19T21:59:28;19.20;;;10.17;;
4597;SDS011;62772;48.646;8.906;2022-10-19T22:04:29;13.20;;;8.97;;
4597;SDS011;62772;48.646;8.906;2022-10-19T22:09:32;13.53;;;8.07;;
4597;SDS011;62772;48.646;8.906;2022-10-19T22:14:33;16.03;;;7.50;;
4597;SDS011;62772;48.646;8.906;2022-10-19T22:19:34;13.83;;;8.53;;
4597;SDS011;62772;48.646;8.906;2022-10-19T22:24:38;13.27;;;8.97;;
4597;SDS011;62772;48.646;8.906;2022-10-19T22:29:39;10.50;;;7.60;;
4597;SDS011;62772;48.646;8.906;2022-10-19T22:34:40;11.60;;;7.40;;
4597;SDS011;62772;48.646;8.906;2022-10-19T22:39:43;11.10;;;7.50;;
4597;SDS011;62772;48.646;8.906;2022-10-19T22:44:44;14.90;;;8.00;;
4597;SDS011;62772;48.646;8.906;2022-10-19T22:49:44;12.93;;;7.77;;
4597;SDS011;62772;48.646;8.906;2022-10-19T22:54:48;13.37;;;8.30;;
4597;SDS011;62772;48.646;8.906;2022-10-19T22:59:50;12.30;;;8.13;;
4597;SDS011;62772;48.646;8.906;2022-10-19T23:04:51;13.03;;;8.17;;
4597;SDS011;62772;48.646;8.906;2022-10-19T23:09:54;12.13;;;7.07;;
4597;SDS011;62772;48.646;8.906;2022-10-19T23:14:55;11.67;;;7.43;;
4597;SDS011;62772;48.646;8.906;2022-10-19T23:19:55;10.50;;;7.50;;
4597;SDS011;62772;48.646;8.906;2022-10-19T23:24:59;10.07;;;7.30;;
4597;SDS011;62772;48.646;8.906;2022-10-19T23:29:59;11.80;;;6.80;;
4597;SDS011;62772;48.646;8.906;2022-10-19T23:35:01;11.00;;;7.40;;
4597;SDS011;62772;48.646;8.906;2022-10-19T23:40:04;12.43;;;7.73;;
4597;SDS011;62772;48.646;8.906;2022-10-19T23:45:06;11.13;;;6.60;;
4597;SDS011;62772;48.646;8.906;2022-10-19T23:50:07;14.77;;;6.73;;
4597;SDS011;62772;48.646;8.906;2022-10-19T23:55:11;9.53;;;6.53;;
